createdAt,value
2022-12-08T00:02:02.584Z,2.02
2022-12-08T00:04:51.121Z,2.01
2022-12-08T00:07:38.222Z,1.96
2022-12-08T00:10:39.939Z,1.94
2022-12-08T00:12:56.082Z,1.91
2022-12-08T00:15:24.319Z,1.91
2022-12-08T00:17:52.252Z,1.90
2022-12-08T00:20:21.022Z,1.91
2022-12-08T00:22:50.391Z,1.92
2022-12-08T00:25:19.018Z,1.93
2022-12-08T00:27:47.099Z,1.88
2022-12-08T00:30:15.205Z,1.84
2022-12-08T00:32:46.341Z,1.87
2022-12-08T00:35:14.506Z,1.89
2022-12-08T00:37:42.573Z,1.91
2022-12-08T00:40:12.617Z,1.94
2022-12-08T00:42:40.938Z,1.95
2022-12-08T00:45:09.651Z,1.98
2022-12-08T00:47:37.774Z,1.98
2022-12-08T00:50:07.364Z,1.99
2022-12-08T00:52:35.694Z,2.05
2022-12-08T00:55:03.963Z,2.03
2022-12-08T00:57:34.464Z,2.02
2022-12-08T01:00:02.772Z,2.03
2022-12-08T01:02:32.531Z,2.00
2022-12-08T01:05:00.667Z,2.01
2022-12-08T01:07:29.542Z,1.98
2022-12-08T01:09:58.086Z,1.96
2022-12-08T01:12:26.573Z,2.01
2022-12-08T01:15:00.636Z,2.00
2022-12-08T01:17:30.904Z,1.96
2022-12-08T01:19:59.293Z,1.95
2022-12-08T01:22:27.302Z,1.93
2022-12-08T01:24:55.547Z,1.89
2022-12-08T01:27:23.541Z,1.88
2022-12-08T01:29:52.160Z,1.87
2022-12-08T01:32:21.648Z,1.81
2022-12-08T01:34:49.666Z,1.80
2022-12-08T01:37:17.778Z,1.77
2022-12-08T01:39:46.186Z,1.69
2022-12-08T01:42:22.279Z,1.67
2022-12-08T01:45:00.245Z,1.76
2022-12-08T01:47:36.291Z,1.64
2022-12-08T01:50:07.855Z,1.63
2022-12-08T01:52:40.879Z,1.61
2022-12-08T01:55:14.178Z,1.59
2022-12-08T01:57:47.925Z,1.55
2022-12-08T02:00:19.587Z,1.54
2022-12-08T02:02:54.715Z,1.47
2022-12-08T02:05:25.945Z,1.46
2022-12-08T02:07:55.843Z,1.37
2022-12-08T02:10:25.532Z,1.42
2022-12-08T02:12:55.553Z,1.36
2022-12-08T02:15:34.139Z,1.34
2022-12-08T02:18:18.336Z,1.36
2022-12-08T02:20:55.292Z,1.33
2022-12-08T02:23:33.117Z,1.29
2022-12-08T02:26:37.775Z,1.27
2022-12-08T02:30:04.147Z,1.24
2022-12-08T02:33:11.638Z,1.23
2022-12-08T02:35:50.153Z,1.22
2022-12-08T02:38:27.946Z,1.17
2022-12-08T02:41:07.383Z,1.14
2022-12-08T02:43:43.446Z,1.14
2022-12-08T02:46:17.359Z,1.13
2022-12-08T02:48:45.596Z,1.09
2022-12-08T02:51:14.934Z,1.01
2022-12-08T02:53:43.575Z,1.08
2022-12-08T02:56:25.300Z,1.07
2022-12-08T02:59:15.458Z,1.03
2022-12-08T03:02:02.253Z,0.95
2022-12-08T03:04:40.264Z,0.92
2022-12-08T03:07:15.407Z,0.85
2022-12-08T03:09:49.070Z,0.83
2022-12-08T03:12:22.027Z,0.72
2022-12-08T03:14:54.747Z,0.70
2022-12-08T03:17:29.692Z,0.71
2022-12-08T03:20:06.381Z,0.71
2022-12-08T03:22:36.923Z,0.71
2022-12-08T03:25:05.420Z,0.67
2022-12-08T03:27:35.020Z,0.62
2022-12-08T03:30:04.239Z,0.53
2022-12-08T03:32:39.087Z,0.47
2022-12-08T03:35:12.477Z,0.40
2022-12-08T03:37:43.794Z,0.44
2022-12-08T03:40:15.414Z,0.47
2022-12-08T03:42:43.466Z,0.48
2022-12-08T03:45:12.698Z,0.46
2022-12-08T03:47:40.596Z,0.43
2022-12-08T03:50:09.718Z,0.37
2022-12-08T03:52:37.629Z,0.40
2022-12-08T03:55:08.520Z,0.28
2022-12-08T03:57:36.598Z,0.32
2022-12-08T04:00:07.119Z,0.33
2022-12-08T04:02:35.345Z,0.37
2022-12-08T04:05:03.551Z,0.32
2022-12-08T04:07:31.516Z,0.30
2022-12-08T04:09:59.376Z,0.29
2022-12-08T04:12:29.229Z,0.28
2022-12-08T04:14:57.171Z,0.20
2022-12-08T04:17:25.415Z,0.10
2022-12-08T04:19:53.371Z,0.01
2022-12-08T04:22:21.471Z,0.02
2022-12-08T04:24:49.503Z,0.04
2022-12-08T04:27:17.816Z,0.02
2022-12-08T04:29:47.283Z,0.06
2022-12-08T04:32:15.543Z,0.09
2022-12-08T04:34:43.482Z,0.08
2022-12-08T04:37:11.527Z,0.07
2022-12-08T04:39:39.406Z,0.06
2022-12-08T04:42:07.708Z,0.05
2022-12-08T04:44:35.622Z,0.10
2022-12-08T04:47:05.540Z,0.11
2022-12-08T04:49:33.567Z,0.14
2022-12-08T04:52:01.898Z,0.10
2022-12-08T04:54:30.115Z,0.03
2022-12-08T04:56:58.422Z,0.03
2022-12-08T04:59:26.388Z,0.08
2022-12-08T05:01:55.074Z,0.08
2022-12-08T05:04:24.510Z,0.03
2022-12-08T05:06:54.010Z,0.06
2022-12-08T05:09:22.363Z,-0.02
2022-12-08T05:11:50.459Z,-0.05
2022-12-08T05:14:21.062Z,-0.13
2022-12-08T05:16:51.994Z,-0.18
2022-12-08T05:19:20.298Z,-0.16
2022-12-08T05:21:49.679Z,-0.17
2022-12-08T05:24:17.795Z,-0.15
2022-12-08T05:26:45.745Z,-0.17
2022-12-08T05:29:13.953Z,-0.20
2022-12-08T05:31:41.998Z,-0.21
2022-12-08T05:34:10.061Z,-0.21
2022-12-08T05:36:38.060Z,-0.19
2022-12-08T05:39:07.471Z,-0.15
2022-12-08T05:41:35.434Z,-0.13
2022-12-08T05:44:03.663Z,-0.07
2022-12-08T05:46:31.640Z,-0.05
2022-12-08T05:49:00.724Z,-0.02
2022-12-08T05:51:29.369Z,-0.02
2022-12-08T05:53:58.108Z,0.02
2022-12-08T05:56:27.487Z,-0.01
2022-12-08T05:58:55.839Z,0.04
2022-12-08T06:01:26.089Z,0.08
2022-12-08T06:03:54.215Z,0.07
2022-12-08T06:06:23.006Z,0.11
2022-12-08T06:08:51.549Z,-0.03
2022-12-08T06:11:21.078Z,-0.13
2022-12-08T06:13:50.935Z,-0.11
2022-12-08T06:16:19.615Z,-0.20
2022-12-08T06:18:48.299Z,-0.32
2022-12-08T06:21:17.394Z,-0.37
2022-12-08T06:23:45.827Z,-0.48
2022-12-08T06:26:16.339Z,-0.53
2022-12-08T06:28:44.998Z,-0.56
2022-12-08T06:31:17.188Z,-0.60
2022-12-08T06:33:45.749Z,-0.61
2022-12-08T06:36:15.042Z,-0.55
2022-12-08T06:38:43.862Z,-0.48
2022-12-08T06:41:13.293Z,-0.44
2022-12-08T06:43:42.082Z,-0.42
2022-12-08T06:46:12.679Z,-0.36
2022-12-08T06:48:42.347Z,-0.31
2022-12-08T06:51:12.441Z,-0.30
2022-12-08T06:53:41.350Z,-0.24
2022-12-08T06:56:10.051Z,-0.19
2022-12-08T06:58:38.286Z,-0.17
2022-12-08T07:01:07.909Z,-0.19
2022-12-08T07:03:36.300Z,-0.12
2022-12-08T07:06:06.346Z,-0.11
2022-12-08T07:08:36.013Z,-0.14
2022-12-08T07:11:09.840Z,-0.23
2022-12-08T07:13:37.985Z,-0.29
2022-12-08T07:16:07.807Z,-0.32
2022-12-08T07:18:36.832Z,-0.37
2022-12-08T07:21:08.075Z,-0.41
2022-12-08T07:23:36.317Z,-0.39
2022-12-08T07:26:05.960Z,-0.36
2022-12-08T07:28:34.282Z,-0.35
2022-12-08T07:31:02.555Z,-0.32
2022-12-08T07:33:31.537Z,-0.31
2022-12-08T07:36:01.896Z,-0.30
2022-12-08T07:38:32.018Z,-0.30
2022-12-08T07:40:59.993Z,-0.30
2022-12-08T07:43:28.152Z,-0.28
2022-12-08T07:45:56.542Z,-0.25
2022-12-08T07:48:24.592Z,-0.22
2022-12-08T07:50:52.468Z,-0.25
2022-12-08T07:53:20.866Z,-0.30
2022-12-08T07:55:51.586Z,-0.27
2022-12-08T07:58:19.976Z,-0.22
2022-12-08T08:00:47.976Z,-0.18
2022-12-08T08:03:15.989Z,-0.15
2022-12-08T08:05:44.673Z,-0.12
2022-12-08T08:08:12.560Z,-0.12
2022-12-08T08:10:40.470Z,-0.15
2022-12-08T08:13:10.522Z,-0.16
2022-12-08T08:15:38.410Z,-0.15
2022-12-08T08:18:06.413Z,-0.11
2022-12-08T08:20:34.747Z,-0.05
2022-12-08T08:23:02.668Z,-0.02
2022-12-08T08:25:30.658Z,0.04
2022-12-08T08:27:59.265Z,0.10
2022-12-08T08:30:28.486Z,0.11
2022-12-08T08:32:56.384Z,0.11
2022-12-08T08:35:26.560Z,0.13
2022-12-08T08:37:54.989Z,0.20
2022-12-08T08:40:22.858Z,0.22
2022-12-08T08:42:51.131Z,0.25
2022-12-08T08:45:18.972Z,0.32
2022-12-08T08:47:48.393Z,0.38
2022-12-08T08:50:16.249Z,0.45
2022-12-08T08:52:44.094Z,0.51
2022-12-08T08:55:12.308Z,0.60
2022-12-08T08:57:40.814Z,0.67
2022-12-08T09:00:10.244Z,0.74
2022-12-08T09:02:38.732Z,0.82
2022-12-08T09:05:09.260Z,0.90
2022-12-08T09:07:37.430Z,0.98
2022-12-08T09:10:06.919Z,1.07
2022-12-08T09:12:35.160Z,1.15
2022-12-08T09:15:02.987Z,1.24
2022-12-08T09:17:30.819Z,1.32
2022-12-08T09:19:59.116Z,1.42
2022-12-08T09:22:28.574Z,1.51
2022-12-08T09:24:56.634Z,1.57
2022-12-08T09:27:24.906Z,1.67
2022-12-08T09:29:53.051Z,1.73
2022-12-08T09:32:20.842Z,1.82
2022-12-08T09:34:52.255Z,1.87
2022-12-08T09:37:20.357Z,1.95
2022-12-08T09:39:50.062Z,2.03
2022-12-08T09:42:30.814Z,2.15
2022-12-08T09:45:06.720Z,2.21
2022-12-08T09:47:38.461Z,2.29
2022-12-08T09:50:13.082Z,2.38
2022-12-08T09:52:44.597Z,2.44
2022-12-08T09:55:22.440Z,2.54
2022-12-08T09:57:56.602Z,2.61
2022-12-08T10:00:24.957Z,2.72
2022-12-08T10:02:53.025Z,2.82
2022-12-08T10:05:21.875Z,2.91
2022-12-08T10:08:00.124Z,2.98
2022-12-08T10:10:38.047Z,3.13
2022-12-08T10:13:13.508Z,3.28
2022-12-08T10:15:47.364Z,3.36
2022-12-08T10:18:18.730Z,3.47
2022-12-08T10:20:49.031Z,3.58
2022-12-08T10:23:29.273Z,3.62
2022-12-08T10:26:02.974Z,3.73
2022-12-08T10:28:32.312Z,3.81
2022-12-08T10:31:00.472Z,3.92
2022-12-08T10:33:29.810Z,4.00
2022-12-08T10:36:01.052Z,4.09
2022-12-08T10:38:32.589Z,4.12
2022-12-08T10:41:08.965Z,4.24
2022-12-08T10:43:39.482Z,4.36
2022-12-08T10:46:13.601Z,4.51
2022-12-08T10:48:50.689Z,4.62
2022-12-08T10:51:30.849Z,4.66
2022-12-08T10:53:59.400Z,4.68
2022-12-08T10:56:30.657Z,4.83
2022-12-08T10:59:15.242Z,4.92
2022-12-08T11:01:48.690Z,4.93
2022-12-08T11:04:19.624Z,4.99
2022-12-08T11:06:49.622Z,5.14
2022-12-08T11:09:37.772Z,5.15
2022-12-08T11:12:14.940Z,5.20
2022-12-08T11:14:51.679Z,5.14
2022-12-08T11:17:27.349Z,5.02
2022-12-08T11:20:00.746Z,4.82
2022-12-08T11:22:32.751Z,4.73
2022-12-08T11:25:03.598Z,4.54
2022-12-08T11:27:35.622Z,4.44
2022-12-08T11:30:09.681Z,4.36
2022-12-08T11:32:44.785Z,4.26
2022-12-08T11:35:22.253Z,4.11
2022-12-08T11:37:50.553Z,4.07
2022-12-08T11:40:23.319Z,3.96
2022-12-08T11:42:58.278Z,3.90
2022-12-08T11:45:31.063Z,3.86
2022-12-08T11:48:07.365Z,3.86
2022-12-08T11:50:43.899Z,3.85
2022-12-08T11:53:20.898Z,3.75
2022-12-08T11:55:53.282Z,3.71
2022-12-08T11:58:28.340Z,3.71
2022-12-08T12:00:56.639Z,3.71
2022-12-08T12:03:30.309Z,3.74
2022-12-08T12:06:38.061Z,3.71
2022-12-08T12:09:14.377Z,3.71
2022-12-08T12:12:11.972Z,3.68
2022-12-08T12:14:57.962Z,3.69
2022-12-08T12:17:42.654Z,3.69
2022-12-08T12:20:18.209Z,3.72
2022-12-08T12:22:49.833Z,3.71
2022-12-08T12:25:20.829Z,3.71
2022-12-08T12:27:51.250Z,3.71
2022-12-08T12:30:29.988Z,3.71
2022-12-08T12:33:00.631Z,3.73
2022-12-08T12:35:34.861Z,3.74
2022-12-08T12:38:31.140Z,3.78
2022-12-08T12:41:04.152Z,3.73
2022-12-08T12:43:37.489Z,3.73
2022-12-08T12:46:54.555Z,3.78
2022-12-08T12:49:53.654Z,3.77
2022-12-08T12:52:44.586Z,3.80
2022-12-08T12:55:26.369Z,3.83
2022-12-08T12:57:56.378Z,3.81
2022-12-08T13:00:26.303Z,3.81
2022-12-08T13:02:58.425Z,3.85
2022-12-08T13:05:28.538Z,3.85
2022-12-08T13:07:59.729Z,3.87
2022-12-08T13:10:31.804Z,3.90
2022-12-08T13:13:06.567Z,3.90
2022-12-08T13:15:40.859Z,3.93
2022-12-08T13:18:21.694Z,3.91
2022-12-08T13:20:53.090Z,3.88
2022-12-08T13:23:31.097Z,3.87
2022-12-08T13:26:20.903Z,3.87
2022-12-08T13:29:23.199Z,3.85
2022-12-08T13:31:53.800Z,3.84
2022-12-08T13:34:31.096Z,3.85
2022-12-08T13:37:05.786Z,3.83
2022-12-08T13:39:42.247Z,3.84
2022-12-08T13:42:19.585Z,3.83
2022-12-08T13:45:19.814Z,3.82
2022-12-08T13:48:05.965Z,3.79
2022-12-08T13:59:10.047Z,3.77
2022-12-08T14:01:45.901Z,3.76
2022-12-08T14:07:13.662Z,3.72
2022-12-08T14:09:42.893Z,3.73
2022-12-08T14:12:19.995Z,3.72
2022-12-08T14:15:05.552Z,3.72
2022-12-08T14:17:34.504Z,3.67
2022-12-08T14:20:06.690Z,3.65
2022-12-08T14:22:38.533Z,3.60
2022-12-08T14:25:08.737Z,3.63
2022-12-08T14:27:40.176Z,3.62
2022-12-08T14:30:16.732Z,3.64
2022-12-08T14:32:48.790Z,3.58
2022-12-08T14:35:23.136Z,3.56
2022-12-08T14:37:56.121Z,3.52
2022-12-08T14:40:32.658Z,3.50
2022-12-08T14:43:16.122Z,3.49
2022-12-08T14:45:55.523Z,3.48
2022-12-08T14:48:26.872Z,3.48
2022-12-08T14:51:03.455Z,3.46
2022-12-08T14:53:40.157Z,3.43
2022-12-08T14:56:12.599Z,3.41
2022-12-08T14:58:40.646Z,3.39
2022-12-08T15:01:10.498Z,3.37
2022-12-08T15:03:38.858Z,3.35
2022-12-08T15:06:10.240Z,3.32
2022-12-08T15:08:55.250Z,3.28
2022-12-08T15:11:33.947Z,3.27
2022-12-08T15:14:05.781Z,3.24
2022-12-08T15:16:43.396Z,3.24
2022-12-08T15:19:20.559Z,3.22
2022-12-08T15:21:48.588Z,3.20
2022-12-08T15:24:18.740Z,3.18
2022-12-08T15:26:49.726Z,3.15
2022-12-08T15:29:22.352Z,3.16
2022-12-08T15:31:50.940Z,3.13
2022-12-08T15:34:19.167Z,3.14
2022-12-08T15:36:49.874Z,3.15
2022-12-08T15:39:29.708Z,3.11
2022-12-08T15:41:58.141Z,3.08
2022-12-08T15:44:26.301Z,3.07
2022-12-08T15:46:55.330Z,3.08
2022-12-08T15:49:25.720Z,3.09
2022-12-08T15:52:01.971Z,3.07
2022-12-08T15:54:40.708Z,3.06
2022-12-08T15:57:22.083Z,3.02
2022-12-08T15:59:59.032Z,3.00
2022-12-08T16:02:34.368Z,2.98
2022-12-08T16:05:41.458Z,2.98
2022-12-08T16:08:17.117Z,2.99
2022-12-08T16:11:34.665Z,2.98
2022-12-08T16:14:23.233Z,2.97
2022-12-08T16:16:43.765Z,2.96
2022-12-08T16:19:15.305Z,2.96
2022-12-08T16:24:31.576Z,2.93
2022-12-08T16:27:58.889Z,2.91
2022-12-08T16:29:49.500Z,2.92
2022-12-08T16:32:18.831Z,2.91
2022-12-08T16:34:47.477Z,2.92
2022-12-08T16:37:17.350Z,2.91
2022-12-08T16:39:46.380Z,2.90
2022-12-08T16:42:34.808Z,2.89
2022-12-08T16:45:05.047Z,2.87
2022-12-08T16:47:33.677Z,2.87
2022-12-08T16:50:01.597Z,2.86
2022-12-08T16:52:30.253Z,2.85
2022-12-08T16:54:58.289Z,2.84
2022-12-08T16:57:27.810Z,2.84
2022-12-08T16:59:56.658Z,2.84
2022-12-08T17:02:24.561Z,2.85
2022-12-08T17:04:52.521Z,2.83
2022-12-08T17:07:21.128Z,2.84
2022-12-08T17:09:49.060Z,2.84
2022-12-08T17:12:17.320Z,2.83
2022-12-08T17:14:47.034Z,2.82
2022-12-08T17:17:15.995Z,2.81
2022-12-08T17:19:43.857Z,2.84
2022-12-08T17:22:11.945Z,2.80
2022-12-08T17:24:40.327Z,2.81
2022-12-08T17:27:08.540Z,2.82
2022-12-08T17:29:37.168Z,2.79
2022-12-08T17:32:07.773Z,2.83
2022-12-08T17:34:35.896Z,2.78
2022-12-08T17:37:04.210Z,2.78
2022-12-08T17:39:32.100Z,2.76
2022-12-08T17:42:00.589Z,2.74
2022-12-08T17:44:29.208Z,2.74
2022-12-08T17:46:57.183Z,2.71
2022-12-08T17:49:30.093Z,2.73
2022-12-08T17:52:00.309Z,2.74
2022-12-08T17:54:28.570Z,2.75
2022-12-08T17:56:59.033Z,2.74
2022-12-08T17:59:28.274Z,2.72
2022-12-08T18:01:57.284Z,2.72
2022-12-08T18:04:27.902Z,2.72
2022-12-08T18:06:58.390Z,2.71
2022-12-08T18:09:26.389Z,2.70
2022-12-08T18:11:54.921Z,2.69
2022-12-08T18:14:22.938Z,2.69
2022-12-08T18:16:51.047Z,2.68
2022-12-08T18:19:19.728Z,2.66
2022-12-08T18:21:49.197Z,2.67
2022-12-08T18:24:21.239Z,2.66
2022-12-08T18:26:50.690Z,2.66
2022-12-08T18:29:18.709Z,2.67
2022-12-08T18:31:47.058Z,2.67
2022-12-08T18:34:16.336Z,2.64
2022-12-08T18:36:44.188Z,2.63
2022-12-08T18:39:23.539Z,2.63
2022-12-08T18:41:51.564Z,2.62
2022-12-08T18:44:20.005Z,2.61
2022-12-08T18:46:48.618Z,2.60
2022-12-08T18:49:19.235Z,2.58
2022-12-08T18:51:47.601Z,2.60
2022-12-08T18:54:16.011Z,2.59
2022-12-08T18:56:45.383Z,2.56
2022-12-08T18:59:13.811Z,2.57
2022-12-08T19:01:42.740Z,2.56
2022-12-08T19:04:28.061Z,2.55
2022-12-08T19:06:57.130Z,2.52
2022-12-08T19:09:29.038Z,2.49
2022-12-08T19:11:59.728Z,2.44
2022-12-08T19:14:30.774Z,2.45
2022-12-08T19:16:59.868Z,2.45
2022-12-08T19:19:28.484Z,2.40
2022-12-08T19:21:58.092Z,2.39
2022-12-08T19:24:26.925Z,2.39
2022-12-08T19:26:55.005Z,2.35
2022-12-08T19:29:24.519Z,2.34
2022-12-08T19:31:54.149Z,2.33
2022-12-08T19:34:23.321Z,2.30
2022-12-08T19:36:52.988Z,2.27
2022-12-08T19:39:41.436Z,2.25
2022-12-08T19:42:32.700Z,2.24
2022-12-08T19:45:07.675Z,2.24
2022-12-08T19:47:35.957Z,2.22
2022-12-08T19:50:21.642Z,2.15
2022-12-08T19:52:50.013Z,2.18
2022-12-08T19:55:20.888Z,2.14
2022-12-08T19:57:52.604Z,2.13
2022-12-08T20:00:22.364Z,2.07
2022-12-08T20:02:51.302Z,2.04
2022-12-08T20:05:19.769Z,2.05
2022-12-08T20:07:49.336Z,2.02
2022-12-08T20:10:19.371Z,2.01
2022-12-08T20:12:49.548Z,1.94
2022-12-08T20:15:19.398Z,1.90
2022-12-08T20:17:48.786Z,1.86
2022-12-08T20:20:16.722Z,1.92
2022-12-08T20:22:45.427Z,1.86
2022-12-08T20:25:13.591Z,1.82
2022-12-08T20:27:42.583Z,1.79
2022-12-08T20:30:16.759Z,1.75
2022-12-08T20:32:45.746Z,1.69
2022-12-08T20:35:15.898Z,1.61
2022-12-08T20:37:44.039Z,1.51
2022-12-08T20:40:14.208Z,1.53
2022-12-08T20:42:42.168Z,1.50
2022-12-08T20:45:10.708Z,1.56
2022-12-08T20:47:39.539Z,1.57
2022-12-08T20:50:09.782Z,1.54
2022-12-08T20:52:39.920Z,1.50
2022-12-08T20:55:09.088Z,1.44
2022-12-08T20:57:37.741Z,1.39
2022-12-08T21:00:07.566Z,1.35
2022-12-08T21:02:36.035Z,1.34
2022-12-08T21:05:06.427Z,1.29
2022-12-08T21:07:35.415Z,1.34
2022-12-08T21:10:05.841Z,1.34
2022-12-08T21:12:34.030Z,1.33
2022-12-08T21:15:02.423Z,1.26
2022-12-08T21:17:30.596Z,1.26
2022-12-08T21:19:59.365Z,1.27
2022-12-08T21:22:27.481Z,1.27
2022-12-08T21:24:55.497Z,1.27
2022-12-08T21:27:25.463Z,1.22
2022-12-08T21:29:53.512Z,1.12
2022-12-08T21:32:25.633Z,1.07
2022-12-08T21:34:57.012Z,0.96
2022-12-08T21:37:25.238Z,0.95
2022-12-08T21:39:53.469Z,0.93
2022-12-08T21:42:38.997Z,0.92
2022-12-08T21:45:09.955Z,0.93
2022-12-08T21:47:38.147Z,0.97
2022-12-08T21:50:08.287Z,0.97
2022-12-08T21:52:38.852Z,0.97
2022-12-08T21:55:08.398Z,0.92
2022-12-08T21:57:36.786Z,0.91
2022-12-08T22:00:05.946Z,0.88
2022-12-08T22:02:36.173Z,0.85
2022-12-08T22:05:04.359Z,0.78
2022-12-08T22:07:32.342Z,0.71
2022-12-08T22:10:00.785Z,0.68
2022-12-08T22:12:28.863Z,0.70
2022-12-08T22:14:57.149Z,0.72
2022-12-08T22:17:25.938Z,0.70
2022-12-08T22:19:55.716Z,0.68
2022-12-08T22:22:23.748Z,0.66
2022-12-08T22:24:51.664Z,0.68
2022-12-08T22:27:19.645Z,0.62
2022-12-08T22:29:48.005Z,0.59
2022-12-08T22:32:16.032Z,0.54
2022-12-08T22:34:44.136Z,0.50
2022-12-08T22:37:13.972Z,0.46
2022-12-08T22:39:42.297Z,0.42
2022-12-08T22:42:11.222Z,0.33
2022-12-08T22:45:30.036Z,0.32
2022-12-08T22:48:20.599Z,0.23
2022-12-08T22:50:48.854Z,0.24
2022-12-08T22:53:18.206Z,0.24
2022-12-08T22:55:46.673Z,0.21
2022-12-08T22:58:15.018Z,0.15
2022-12-08T23:00:43.377Z,0.12
2022-12-08T23:03:11.686Z,0.06
2022-12-08T23:05:41.660Z,-0.03
2022-12-08T23:08:10.722Z,-0.06
2022-12-08T23:10:41.444Z,-0.07
2022-12-08T23:13:10.670Z,-0.10
2022-12-08T23:15:39.236Z,-0.15
2022-12-08T23:18:08.506Z,-0.23
2022-12-08T23:20:37.017Z,-0.28
2022-12-08T23:23:05.454Z,-0.37
2022-12-08T23:25:33.576Z,-0.39
2022-12-08T23:28:03.390Z,-0.34
2022-12-08T23:30:31.615Z,-0.36
2022-12-08T23:32:59.967Z,-0.39
2022-12-08T23:35:28.393Z,-0.37
2022-12-08T23:37:56.452Z,-0.36
2022-12-08T23:40:24.586Z,-0.36
2022-12-08T23:42:52.647Z,-0.35
2022-12-08T23:45:22.094Z,-0.33
2022-12-08T23:47:50.222Z,-0.35
2022-12-08T23:50:18.716Z,-0.32
2022-12-08T23:52:46.825Z,-0.28
2022-12-08T23:55:17.831Z,-0.23
2022-12-08T23:57:46.349Z,-0.25
